createdAt,value
2023-01-27T00:02:22.506Z,74.94
2023-01-27T00:05:26.629Z,74.99
2023-01-27T00:08:29.939Z,75.01
2023-01-27T00:11:51.609Z,75.03
2023-01-27T00:14:54.799Z,75.09
2023-01-27T00:17:58.119Z,75.10
2023-01-27T00:21:19.700Z,75.12
2023-01-27T00:24:37.966Z,75.09
2023-01-27T00:27:41.188Z,75.14
2023-01-27T00:30:44.333Z,75.19
2023-01-27T00:33:49.582Z,75.20
2023-01-27T00:36:52.771Z,75.22
2023-01-27T00:39:55.962Z,75.21
2023-01-27T00:42:59.241Z,75.22
2023-01-27T00:46:02.970Z,75.27
2023-01-27T00:49:06.344Z,75.35
2023-01-27T00:52:09.543Z,75.33
2023-01-27T00:55:16.011Z,75.32
2023-01-27T00:58:21.372Z,75.32
2023-01-27T01:01:24.615Z,75.30
2023-01-27T01:04:28.796Z,75.34
2023-01-27T01:07:32.044Z,75.41
2023-01-27T01:10:38.849Z,75.43
2023-01-27T01:13:43.337Z,75.46
2023-01-27T01:16:46.493Z,75.48
2023-01-27T01:19:49.708Z,75.39
2023-01-27T01:22:52.953Z,75.40
2023-01-27T01:25:57.517Z,75.43
2023-01-27T01:29:00.744Z,75.49
2023-01-27T01:32:04.222Z,75.50
2023-01-27T01:35:08.309Z,75.48
2023-01-27T01:38:11.988Z,75.45
2023-01-27T01:41:18.999Z,75.50
2023-01-27T01:44:32.840Z,75.52
2023-01-27T01:47:36.249Z,75.52
2023-01-27T01:50:42.961Z,75.50
2023-01-27T01:53:50.846Z,75.51
2023-01-27T01:56:58.558Z,75.51
2023-01-27T02:00:09.475Z,75.55
2023-01-27T02:03:18.700Z,75.53
2023-01-27T02:06:22.301Z,75.54
2023-01-27T02:09:28.365Z,75.55
2023-01-27T02:12:31.739Z,75.54
2023-01-27T02:15:35.577Z,75.53
2023-01-27T02:18:43.048Z,75.54
2023-01-27T02:21:49.672Z,75.54
2023-01-27T02:25:00.327Z,75.54
2023-01-27T02:28:08.475Z,75.51
2023-01-27T02:31:12.404Z,75.49
2023-01-27T02:34:20.939Z,75.48
2023-01-27T02:37:25.296Z,75.45
2023-01-27T02:40:30.335Z,75.41
2023-01-27T02:43:33.914Z,75.41
2023-01-27T02:46:37.995Z,75.36
2023-01-27T02:49:41.360Z,75.37
2023-01-27T02:52:44.649Z,75.42
2023-01-27T02:55:48.202Z,75.41
2023-01-27T02:58:51.404Z,75.41
2023-01-27T03:02:00.169Z,75.39
2023-01-27T03:05:05.143Z,75.38
2023-01-27T03:08:08.813Z,75.32
2023-01-27T03:11:12.479Z,75.29
2023-01-27T03:14:15.794Z,75.27
2023-01-27T03:17:37.807Z,75.24
2023-01-27T03:20:42.185Z,75.21
2023-01-27T03:23:49.097Z,75.20
2023-01-27T03:26:55.722Z,75.15
2023-01-27T03:30:07.018Z,75.09
2023-01-27T03:33:10.825Z,75.05
2023-01-27T03:36:58.170Z,75.02
2023-01-27T03:40:19.839Z,75.02
2023-01-27T03:43:41.559Z,74.97
2023-01-27T03:46:45.026Z,74.94
2023-01-27T03:49:48.197Z,74.92
2023-01-27T03:53:03.654Z,74.94
2023-01-27T03:56:07.286Z,74.93
2023-01-27T03:59:10.451Z,74.93
2023-01-27T04:02:32.035Z,74.94
2023-01-27T04:05:53.743Z,74.95
2023-01-27T04:08:57.456Z,74.95
2023-01-27T04:12:04.578Z,74.97
2023-01-27T04:15:08.684Z,74.95
2023-01-27T04:18:12.113Z,74.95
2023-01-27T04:21:15.338Z,74.95
2023-01-27T04:24:24.478Z,74.90
2023-01-27T04:27:27.839Z,74.82
2023-01-27T04:30:31.111Z,74.76
2023-01-27T04:33:34.338Z,74.77
2023-01-27T04:36:37.654Z,74.75
2023-01-27T04:39:41.859Z,74.81
2023-01-27T04:42:45.123Z,74.74
2023-01-27T04:45:51.042Z,74.74
2023-01-27T04:48:54.360Z,74.69
2023-01-27T04:51:57.541Z,74.60
2023-01-27T04:55:00.720Z,74.50
2023-01-27T04:58:05.077Z,74.44
2023-01-27T05:01:08.198Z,74.36
2023-01-27T05:04:11.377Z,74.27
2023-01-27T05:07:14.775Z,74.21
2023-01-27T05:10:18.233Z,74.18
2023-01-27T05:13:21.519Z,74.14
2023-01-27T05:16:25.590Z,74.09
2023-01-27T05:19:29.117Z,74.00
2023-01-27T05:22:32.283Z,73.97
2023-01-27T05:25:35.517Z,73.86
2023-01-27T05:28:41.582Z,73.75
2023-01-27T05:31:44.949Z,73.69
2023-01-27T05:34:48.177Z,73.66
2023-01-27T05:37:51.379Z,73.58
2023-01-27T05:41:04.105Z,73.49
2023-01-27T05:44:07.363Z,73.35
2023-01-27T05:47:10.581Z,73.40
2023-01-27T05:50:13.831Z,73.38
2023-01-27T05:53:18.661Z,73.32
2023-01-27T05:56:23.322Z,73.25
2023-01-27T05:59:26.565Z,73.21
2023-01-27T06:02:29.821Z,73.23
2023-01-27T06:05:33.130Z,73.19
2023-01-27T06:08:38.001Z,73.05
2023-01-27T06:11:41.212Z,72.95
2023-01-27T06:14:44.437Z,72.87
2023-01-27T06:17:47.647Z,72.81
2023-01-27T06:20:51.102Z,72.74
2023-01-27T06:23:54.438Z,72.71
2023-01-27T06:26:57.638Z,72.68
2023-01-27T06:30:00.874Z,72.73
2023-01-27T06:33:05.039Z,72.71
2023-01-27T06:36:10.795Z,72.69
2023-01-27T06:39:14.061Z,72.67
2023-01-27T06:42:17.297Z,72.67
2023-01-27T06:45:20.583Z,72.66
2023-01-27T06:48:24.399Z,72.62
2023-01-27T06:51:27.634Z,72.60
2023-01-27T06:54:30.923Z,72.58
2023-01-27T06:57:34.797Z,72.57
2023-01-27T07:00:39.667Z,72.59
2023-01-27T07:03:44.776Z,72.62
2023-01-27T07:06:48.369Z,72.60
2023-01-27T07:09:52.964Z,72.58
2023-01-27T07:13:07.076Z,72.58
2023-01-27T07:16:10.300Z,72.62
2023-01-27T07:19:13.725Z,72.69
2023-01-27T07:22:16.889Z,72.72
2023-01-27T07:25:20.335Z,72.76
2023-01-27T07:28:24.006Z,72.81
2023-01-27T07:31:27.788Z,72.87
2023-01-27T07:34:31.045Z,72.82
2023-01-27T07:37:35.622Z,72.83
2023-01-27T07:40:40.882Z,72.80
2023-01-27T07:43:44.157Z,72.75
2023-01-27T07:46:47.461Z,72.78
2023-01-27T07:49:50.614Z,72.84
2023-01-27T07:52:53.926Z,72.86
2023-01-27T07:55:59.975Z,72.80
2023-01-27T07:59:04.520Z,72.78
2023-01-27T08:02:10.431Z,72.82
2023-01-27T08:05:13.751Z,72.81
2023-01-27T08:08:19.047Z,72.81
2023-01-27T08:11:22.383Z,72.76
2023-01-27T08:14:25.698Z,72.73
2023-01-27T08:17:29.952Z,72.74
2023-01-27T08:20:33.339Z,72.75
2023-01-27T08:23:37.037Z,72.65
2023-01-27T08:26:40.377Z,72.60
2023-01-27T08:29:43.899Z,72.52
2023-01-27T08:32:49.299Z,72.50
2023-01-27T08:35:52.651Z,72.41
2023-01-27T08:38:56.978Z,72.31
2023-01-27T08:42:00.674Z,72.27
2023-01-27T08:45:04.260Z,72.24
2023-01-27T08:48:07.591Z,72.15
2023-01-27T08:51:13.873Z,72.15
2023-01-27T08:54:17.140Z,72.05
2023-01-27T08:57:20.521Z,71.86
2023-01-27T09:00:24.355Z,71.82
2023-01-27T09:03:28.182Z,71.86
2023-01-27T09:06:31.574Z,71.87
2023-01-27T09:09:35.145Z,71.88
2023-01-27T09:12:38.602Z,71.88
2023-01-27T09:15:45.125Z,71.74
2023-01-27T09:18:49.631Z,71.65
2023-01-27T09:21:52.937Z,71.66
2023-01-27T09:24:56.309Z,71.64
2023-01-27T09:28:00.495Z,71.69
2023-01-27T09:31:05.553Z,71.70
2023-01-27T09:34:08.938Z,71.73
2023-01-27T09:37:14.158Z,71.84
2023-01-27T09:40:43.960Z,71.79
2023-01-27T09:44:02.570Z,71.78
2023-01-27T09:47:19.905Z,71.78
2023-01-27T09:50:47.198Z,71.72
2023-01-27T09:54:15.269Z,71.76
2023-01-27T09:57:26.693Z,71.77
2023-01-27T10:00:48.469Z,71.70
2023-01-27T10:04:13.041Z,71.66
2023-01-27T10:07:38.204Z,71.77
2023-01-27T10:10:50.308Z,71.69
2023-01-27T10:14:19.713Z,71.65
2023-01-27T10:17:44.762Z,71.64
2023-01-27T10:21:01.120Z,71.66
2023-01-27T10:24:59.687Z,71.72
2023-01-27T10:28:17.371Z,71.70
2023-01-27T10:31:36.039Z,71.64
2023-01-27T10:34:51.321Z,71.73
2023-01-27T10:38:20.430Z,71.71
2023-01-27T10:41:57.267Z,71.75
2023-01-27T10:45:21.402Z,71.82
2023-01-27T10:48:39.717Z,71.93
2023-01-27T10:51:50.239Z,72.00
2023-01-27T10:55:15.374Z,71.93
2023-01-27T10:58:55.329Z,71.78
2023-01-27T11:02:14.643Z,71.75
2023-01-27T11:05:30.564Z,71.73
2023-01-27T11:08:39.714Z,71.58
2023-01-27T11:11:46.008Z,71.40
2023-01-27T11:14:52.347Z,71.43
2023-01-27T11:17:59.796Z,71.44
2023-01-27T11:21:06.363Z,71.39
2023-01-27T11:24:24.083Z,71.33
2023-01-27T11:27:45.873Z,71.17
2023-01-27T11:30:59.107Z,71.13
2023-01-27T11:34:22.993Z,70.93
2023-01-27T11:37:32.424Z,70.73
2023-01-27T11:40:38.563Z,70.56
2023-01-27T11:43:42.414Z,70.27
2023-01-27T11:46:48.970Z,70.14
2023-01-27T11:49:54.120Z,70.08
2023-01-27T11:53:22.369Z,69.99
2023-01-27T11:56:27.122Z,69.67
2023-01-27T11:59:36.506Z,69.75
2023-01-27T12:02:46.290Z,69.60
2023-01-27T12:05:55.941Z,69.60
2023-01-27T12:09:00.017Z,69.47
2023-01-27T12:12:15.825Z,69.41
2023-01-27T12:15:21.116Z,69.32
2023-01-27T12:18:24.824Z,69.31
2023-01-27T12:21:48.209Z,69.29
2023-01-27T12:24:56.040Z,69.20
2023-01-27T12:28:03.187Z,69.23
2023-01-27T12:31:24.864Z,69.11
2023-01-27T12:34:56.551Z,69.07
2023-01-27T12:38:11.645Z,68.89
2023-01-27T12:41:40.476Z,68.96
2023-01-27T12:44:50.320Z,68.73
2023-01-27T12:48:01.547Z,68.77
2023-01-27T12:51:17.137Z,68.69
2023-01-27T12:54:30.271Z,68.50
2023-01-27T12:57:33.776Z,68.41
2023-01-27T13:00:39.138Z,68.19
2023-01-27T13:03:42.899Z,68.00
2023-01-27T13:06:58.710Z,68.13
2023-01-27T13:10:16.000Z,68.18
2023-01-27T13:13:29.196Z,67.99
2023-01-27T13:16:32.788Z,67.79
2023-01-27T13:19:47.090Z,67.75
2023-01-27T13:22:58.193Z,67.76
2023-01-27T13:26:04.241Z,67.62
2023-01-27T13:29:10.945Z,67.48
2023-01-27T13:32:32.363Z,67.60
2023-01-27T13:35:41.951Z,67.38
2023-01-27T13:39:05.879Z,67.08
2023-01-27T13:42:29.294Z,67.16
2023-01-27T13:45:53.435Z,67.17
2023-01-27T13:49:05.196Z,67.02
2023-01-27T13:52:11.212Z,67.00
2023-01-27T13:55:15.287Z,66.77
2023-01-27T13:58:36.750Z,66.86
2023-01-27T14:01:58.696Z,66.78
2023-01-27T14:05:02.560Z,66.68
2023-01-27T14:08:30.614Z,66.67
2023-01-27T14:11:55.600Z,66.58
2023-01-27T14:15:21.866Z,66.53
2023-01-27T14:18:30.989Z,66.56
2023-01-27T14:21:53.306Z,66.49
2023-01-27T14:25:42.051Z,66.35
2023-01-27T14:29:06.157Z,66.42
2023-01-27T14:32:18.205Z,66.52
2023-01-27T14:35:30.495Z,66.54
2023-01-27T14:38:55.700Z,66.29
2023-01-27T14:42:11.444Z,66.15
2023-01-27T14:45:35.919Z,66.00
2023-01-27T14:48:39.176Z,65.83
2023-01-27T14:51:51.450Z,65.58
2023-01-27T14:55:06.805Z,65.60
2023-01-27T14:58:48.678Z,65.17
2023-01-27T15:02:08.617Z,65.00
2023-01-27T15:05:22.469Z,64.96
2023-01-27T15:08:31.541Z,64.97
2023-01-27T15:12:01.109Z,64.99
2023-01-27T15:15:16.643Z,64.78
2023-01-27T15:18:54.640Z,64.72
2023-01-27T15:22:11.978Z,64.69
2023-01-27T15:25:19.695Z,64.67
2023-01-27T15:28:29.272Z,64.74
2023-01-27T15:31:33.476Z,64.70
2023-01-27T15:34:36.827Z,64.75
2023-01-27T15:37:55.781Z,64.84
2023-01-27T15:41:07.989Z,64.79
2023-01-27T15:44:18.829Z,64.63
2023-01-27T15:47:27.675Z,64.64
2023-01-27T15:50:33.166Z,64.65
2023-01-27T15:53:42.171Z,64.29
2023-01-27T15:56:53.660Z,64.37
2023-01-27T16:00:07.455Z,64.59
2023-01-27T16:03:33.559Z,64.43
2023-01-27T16:06:46.868Z,64.35
2023-01-27T16:09:52.200Z,64.45
2023-01-27T16:13:23.248Z,64.42
2023-01-27T16:16:35.236Z,64.48
2023-01-27T16:19:52.544Z,64.61
2023-01-27T16:23:11.483Z,64.48
2023-01-27T16:26:32.936Z,64.58
2023-01-27T16:29:45.314Z,64.82
2023-01-27T16:33:04.277Z,65.04
2023-01-27T16:36:13.464Z,65.06
2023-01-27T16:39:58.995Z,65.15
2023-01-27T16:43:08.351Z,65.34
2023-01-27T16:46:37.162Z,65.56
2023-01-27T16:49:42.057Z,65.80
2023-01-27T16:52:45.991Z,65.98
2023-01-27T16:56:07.892Z,66.31
2023-01-27T16:59:21.877Z,66.55
2023-01-27T17:02:28.200Z,66.69
2023-01-27T17:05:31.562Z,66.80
2023-01-27T17:08:46.843Z,66.84
2023-01-27T17:11:50.457Z,66.95
2023-01-27T17:14:54.091Z,67.04
2023-01-27T17:17:58.165Z,67.07
2023-01-27T17:21:02.203Z,67.22
2023-01-27T17:24:36.948Z,67.29
2023-01-27T17:27:43.587Z,67.17
2023-01-27T17:30:48.141Z,67.30
2023-01-27T17:33:59.857Z,67.43
2023-01-27T17:37:32.203Z,67.57
2023-01-27T17:40:39.851Z,67.63
2023-01-27T17:43:44.670Z,67.66
2023-01-27T17:46:47.940Z,67.73
2023-01-27T17:49:51.618Z,67.70
2023-01-27T17:52:57.189Z,67.61
2023-01-27T17:56:10.177Z,67.46
2023-01-27T17:59:20.134Z,67.53
2023-01-27T18:02:30.442Z,67.36
2023-01-27T18:05:34.246Z,67.47
2023-01-27T18:08:37.848Z,67.40
2023-01-27T18:11:51.919Z,67.31
2023-01-27T18:14:55.180Z,67.36
2023-01-27T18:18:00.480Z,67.21
2023-01-27T18:21:08.404Z,67.12
2023-01-27T18:24:20.799Z,67.08
2023-01-27T18:27:27.430Z,66.82
2023-01-27T18:30:31.119Z,66.83
2023-01-27T18:33:34.369Z,66.87
2023-01-27T18:36:39.114Z,66.75
2023-01-27T18:39:42.452Z,66.53
2023-01-27T18:42:52.059Z,66.47
2023-01-27T18:45:55.595Z,66.49
2023-01-27T18:49:00.015Z,66.46
2023-01-27T18:52:19.320Z,66.41
2023-01-27T18:55:28.083Z,66.41
2023-01-27T18:58:31.315Z,66.58
2023-01-27T19:01:36.231Z,66.57
2023-01-27T19:04:39.765Z,66.54
2023-01-27T19:07:43.198Z,66.63
2023-01-27T19:10:47.795Z,66.76
2023-01-27T19:13:51.202Z,66.89
2023-01-27T19:16:54.708Z,66.89
2023-01-27T19:19:58.170Z,66.91
2023-01-27T19:23:01.526Z,66.94
2023-01-27T19:26:10.094Z,67.10
2023-01-27T19:29:14.434Z,67.17
2023-01-27T19:32:17.772Z,67.13
2023-01-27T19:35:25.691Z,67.23
2023-01-27T19:38:29.957Z,67.23
2023-01-27T19:41:34.283Z,67.38
2023-01-27T19:44:37.428Z,67.51
2023-01-27T19:47:44.036Z,67.52
2023-01-27T19:50:47.564Z,67.54
2023-01-27T19:53:50.771Z,67.55
2023-01-27T19:56:54.400Z,67.52
2023-01-27T19:59:57.723Z,67.49
2023-01-27T20:03:01.949Z,67.62
2023-01-27T20:06:14.508Z,67.68
2023-01-27T20:09:17.828Z,67.77
2023-01-27T20:12:21.110Z,67.85
2023-01-27T20:15:27.151Z,67.90
2023-01-27T20:18:31.313Z,68.01
2023-01-27T20:21:34.728Z,68.02
2023-01-27T20:24:38.126Z,67.93
2023-01-27T20:27:42.621Z,67.83
2023-01-27T20:30:45.996Z,67.91
2023-01-27T20:33:52.936Z,67.88
2023-01-27T20:36:56.642Z,67.80
2023-01-27T20:40:00.041Z,67.86
2023-01-27T20:43:03.565Z,67.78
2023-01-27T20:46:11.809Z,67.85
2023-01-27T20:49:15.147Z,67.89
2023-01-27T20:52:18.530Z,67.98
2023-01-27T20:55:22.501Z,67.98
2023-01-27T20:58:27.058Z,68.12
2023-01-27T21:01:30.608Z,68.28
2023-01-27T21:04:34.017Z,68.39
2023-01-27T21:07:37.378Z,68.62
2023-01-27T21:10:40.700Z,68.79
2023-01-27T21:13:44.608Z,68.97
2023-01-27T21:16:48.236Z,69.14
2023-01-27T21:19:51.583Z,69.39
2023-01-27T21:22:55.176Z,69.65
2023-01-27T21:26:09.255Z,69.82
2023-01-27T21:29:12.764Z,70.01
2023-01-27T21:32:16.263Z,70.19
2023-01-27T21:35:19.671Z,70.34
2023-01-27T21:38:23.034Z,70.47
2023-01-27T21:41:45.365Z,70.59
2023-01-27T21:45:07.421Z,70.78
2023-01-27T21:48:11.719Z,70.85
2023-01-27T21:51:15.314Z,70.92
2023-01-27T21:54:18.576Z,71.02
2023-01-27T21:57:21.867Z,71.08
2023-01-27T22:00:27.835Z,71.15
2023-01-27T22:03:31.277Z,71.18
2023-01-27T22:06:34.738Z,71.25
2023-01-27T22:09:38.923Z,71.24
2023-01-27T22:12:42.651Z,71.31
2023-01-27T22:15:51.953Z,71.38
2023-01-27T22:18:55.312Z,71.45
2023-01-27T22:21:58.614Z,71.49
2023-01-27T22:25:02.114Z,71.55
2023-01-27T22:28:05.559Z,71.57
2023-01-27T22:31:08.912Z,71.60
2023-01-27T22:34:12.344Z,71.60
2023-01-27T22:37:15.638Z,71.67
2023-01-27T22:40:18.944Z,71.69
2023-01-27T22:43:22.229Z,71.73
2023-01-27T22:46:25.880Z,71.80
2023-01-27T22:49:29.173Z,71.84
2023-01-27T22:52:36.698Z,71.88
2023-01-27T22:55:40.271Z,71.97
2023-01-27T22:58:43.511Z,72.03
2023-01-27T23:01:46.877Z,72.09
2023-01-27T23:04:50.214Z,72.09
2023-01-27T23:07:53.631Z,72.13
2023-01-27T23:11:01.507Z,72.19
2023-01-27T23:14:04.873Z,72.24
2023-01-27T23:17:08.374Z,72.25
2023-01-27T23:20:12.266Z,72.31
2023-01-27T23:23:16.295Z,72.33
2023-01-27T23:26:19.752Z,72.35
2023-01-27T23:29:25.308Z,72.37
2023-01-27T23:32:29.147Z,72.38
2023-01-27T23:35:32.395Z,72.42
2023-01-27T23:38:36.932Z,72.47
2023-01-27T23:41:40.374Z,72.47
2023-01-27T23:44:43.719Z,72.44
2023-01-27T23:47:46.952Z,72.50
2023-01-27T23:50:50.688Z,72.54
2023-01-27T23:53:54.081Z,72.60
2023-01-27T23:56:57.298Z,72.65
